createdAt,value
2018-12-09T00:00:09.088Z,10.50
2018-12-09T00:02:36.558Z,10.50
2018-12-09T00:05:04.421Z,10.50
2018-12-09T00:07:32.147Z,10.50
2018-12-09T00:09:59.776Z,10.40
2018-12-09T00:12:27.264Z,10.20
2018-12-09T00:14:54.820Z,10.10
2018-12-09T00:17:22.295Z,9.90
2018-12-09T00:19:49.800Z,9.80
2018-12-09T00:22:17.424Z,9.80
2018-12-09T00:24:44.974Z,9.80
2018-12-09T00:27:12.440Z,9.80
2018-12-09T00:29:39.863Z,9.70
2018-12-09T00:32:07.406Z,9.70
2018-12-09T00:34:34.848Z,9.60
2018-12-09T00:37:02.507Z,9.70
2018-12-09T00:39:29.971Z,9.80
2018-12-09T00:41:57.854Z,9.80
2018-12-09T00:44:25.321Z,9.80
2018-12-09T00:46:52.881Z,9.80
2018-12-09T00:49:20.392Z,9.90
2018-12-09T00:51:47.864Z,9.90
2018-12-09T00:54:15.320Z,9.90
2018-12-09T00:56:42.860Z,9.90
2018-12-09T00:59:10.300Z,10.00
2018-12-09T01:01:37.784Z,10.00
2018-12-09T01:04:05.244Z,10.00
2018-12-09T01:06:32.684Z,10.00
2018-12-09T01:09:00.277Z,10.00
2018-12-09T01:11:28.219Z,10.10
2018-12-09T01:13:55.753Z,10.10
2018-12-09T01:16:23.292Z,10.10
2018-12-09T01:18:50.732Z,10.10
2018-12-09T01:21:18.978Z,10.10
2018-12-09T01:23:46.462Z,10.10
2018-12-09T01:26:13.900Z,10.10
2018-12-09T01:28:41.803Z,10.10
2018-12-09T01:31:09.352Z,10.20
2018-12-09T01:33:36.825Z,10.20
2018-12-09T01:36:04.494Z,10.20
2018-12-09T01:38:31.959Z,10.20
2018-12-09T01:40:59.447Z,10.20
2018-12-09T01:43:27.003Z,10.20
2018-12-09T01:45:54.475Z,10.10
2018-12-09T01:48:22.016Z,10.10
2018-12-09T01:50:49.731Z,10.00
2018-12-09T01:53:29.151Z,10.00
2018-12-09T01:55:56.724Z,10.00
2018-12-09T01:58:24.156Z,9.90
2018-12-09T02:00:51.687Z,9.90
2018-12-09T02:03:19.225Z,9.90
2018-12-09T02:05:46.886Z,9.80
2018-12-09T02:08:14.450Z,9.80
2018-12-09T02:10:41.920Z,9.80
2018-12-09T02:13:09.860Z,9.70
2018-12-09T02:15:37.319Z,9.70
2018-12-09T02:18:05.353Z,9.70
2018-12-09T02:20:32.818Z,9.70
2018-12-09T02:23:00.307Z,9.60
2018-12-09T02:25:27.935Z,9.60
2018-12-09T02:27:55.378Z,9.60
2018-12-09T02:30:23.001Z,9.70
2018-12-09T02:32:50.533Z,9.60
2018-12-09T02:35:18.089Z,9.60
2018-12-09T02:37:45.727Z,9.60
2018-12-09T02:40:13.209Z,9.60
2018-12-09T02:42:40.653Z,9.60
2018-12-09T02:45:08.280Z,9.70
2018-12-09T02:47:36.099Z,9.80
2018-12-09T02:50:04.020Z,9.80
2018-12-09T02:52:31.513Z,9.70
2018-12-09T02:54:59.011Z,9.80
2018-12-09T02:57:26.467Z,9.80
2018-12-09T02:59:54.004Z,9.80
2018-12-09T03:02:21.459Z,9.90
2018-12-09T03:04:49.081Z,10.00
2018-12-09T03:07:16.582Z,9.90
2018-12-09T03:09:44.019Z,10.00
2018-12-09T03:12:11.770Z,9.90
2018-12-09T03:14:39.329Z,10.00
2018-12-09T03:17:06.783Z,10.00
2018-12-09T03:19:34.393Z,9.90
2018-12-09T03:22:02.052Z,9.90
2018-12-09T03:24:30.546Z,9.90
2018-12-09T03:26:58.070Z,9.90
2018-12-09T03:29:25.635Z,9.90
2018-12-09T03:31:53.096Z,9.80
2018-12-09T03:34:20.632Z,9.80
2018-12-09T03:36:48.267Z,9.80
2018-12-09T03:39:15.883Z,9.70
2018-12-09T03:41:43.327Z,9.70
2018-12-09T03:44:10.893Z,9.80
2018-12-09T03:46:38.444Z,9.80
2018-12-09T03:49:06.234Z,9.80
2018-12-09T03:51:33.775Z,9.80
2018-12-09T03:54:01.283Z,9.80
2018-12-09T03:56:28.853Z,9.80
2018-12-09T03:58:56.385Z,9.80
2018-12-09T04:01:24.015Z,9.70
2018-12-09T04:03:51.823Z,9.60
2018-12-09T04:06:19.374Z,9.50
2018-12-09T04:08:46.911Z,9.50
2018-12-09T04:11:14.443Z,9.40
2018-12-09T04:13:42.303Z,9.40
2018-12-09T04:16:09.749Z,9.40
2018-12-09T04:18:37.211Z,9.40
2018-12-09T04:21:04.743Z,9.40
2018-12-09T04:23:32.288Z,9.40
2018-12-09T04:26:02.043Z,9.30
2018-12-09T04:28:29.552Z,8.80
2018-12-09T04:30:57.059Z,8.70
2018-12-09T04:33:24.521Z,8.60
2018-12-09T04:35:52.093Z,8.60
2018-12-09T04:38:19.647Z,8.60
2018-12-09T04:40:47.087Z,8.60
2018-12-09T04:43:14.663Z,8.60
2018-12-09T04:45:42.396Z,8.70
2018-12-09T04:48:09.976Z,8.70
2018-12-09T04:50:37.420Z,8.70
2018-12-09T04:53:04.893Z,8.90
2018-12-09T04:55:32.806Z,8.90
2018-12-09T04:58:00.369Z,9.10
2018-12-09T05:00:39.664Z,9.10
2018-12-09T05:03:07.205Z,9.20
2018-12-09T05:05:34.761Z,9.30
2018-12-09T05:08:02.290Z,9.30
2018-12-09T05:10:29.859Z,9.40
2018-12-09T05:12:57.605Z,9.40
2018-12-09T05:15:25.139Z,9.40
2018-12-09T05:17:52.662Z,9.40
2018-12-09T05:20:20.193Z,9.40
2018-12-09T05:22:47.741Z,9.50
2018-12-09T05:25:16.193Z,9.40
2018-12-09T05:27:43.974Z,9.50
2018-12-09T05:30:11.464Z,9.30
2018-12-09T05:32:39.010Z,9.20
2018-12-09T05:35:06.582Z,9.20
2018-12-09T05:37:34.340Z,9.20
2018-12-09T05:40:01.829Z,9.20
2018-12-09T05:42:29.372Z,9.10
2018-12-09T05:44:56.807Z,9.00
2018-12-09T05:47:24.275Z,8.90
2018-12-09T05:49:52.222Z,8.80
2018-12-09T05:52:19.696Z,8.80
2018-12-09T05:54:47.271Z,8.80
2018-12-09T05:57:14.904Z,8.80
2018-12-09T05:59:42.451Z,8.80
2018-12-09T06:02:22.016Z,8.80
2018-12-09T06:04:49.570Z,8.80
2018-12-09T06:07:17.024Z,8.80
2018-12-09T06:09:44.484Z,8.80
2018-12-09T06:12:11.940Z,8.90
2018-12-09T06:14:39.395Z,8.90
2018-12-09T06:17:06.857Z,8.90
2018-12-09T06:19:34.824Z,9.00
2018-12-09T06:22:02.434Z,9.00
2018-12-09T06:24:29.949Z,9.00
2018-12-09T06:26:57.398Z,9.00
2018-12-09T06:29:25.059Z,9.10
2018-12-09T06:31:52.678Z,9.10
2018-12-09T06:34:20.188Z,9.20
2018-12-09T06:36:47.754Z,9.20
2018-12-09T06:39:15.500Z,9.30
2018-12-09T06:41:43.162Z,9.30
2018-12-09T06:44:10.830Z,9.30
2018-12-09T06:46:38.280Z,9.30
2018-12-09T06:49:05.716Z,9.30
2018-12-09T06:51:33.664Z,9.30
2018-12-09T06:54:01.111Z,9.30
2018-12-09T06:56:28.825Z,9.30
2018-12-09T06:58:56.424Z,9.40
2018-12-09T07:01:23.952Z,9.40
2018-12-09T07:03:52.782Z,9.40
2018-12-09T07:06:20.322Z,9.50
2018-12-09T07:08:47.790Z,9.40
2018-12-09T07:11:15.310Z,9.50
2018-12-09T07:13:42.866Z,9.50
2018-12-09T07:16:10.413Z,9.50
2018-12-09T07:18:38.171Z,9.50
2018-12-09T07:21:05.851Z,9.40
2018-12-09T07:23:33.467Z,9.50
2018-12-09T07:26:00.910Z,9.50
2018-12-09T07:28:28.424Z,9.50
2018-12-09T07:30:56.264Z,9.50
2018-12-09T07:33:23.827Z,9.50
2018-12-09T07:35:51.284Z,9.50
2018-12-09T07:38:18.848Z,9.50
2018-12-09T07:40:46.352Z,9.60
2018-12-09T07:43:13.997Z,9.50
2018-12-09T07:45:41.544Z,9.50
2018-12-09T07:48:08.982Z,9.50
2018-12-09T07:50:36.934Z,9.50
2018-12-09T07:53:05.457Z,9.50
2018-12-09T07:55:32.927Z,9.60
2018-12-09T07:58:00.473Z,9.50
2018-12-09T08:00:28.018Z,9.60
2018-12-09T08:02:55.741Z,9.70
2018-12-09T08:05:23.846Z,9.60
2018-12-09T08:07:51.300Z,9.70
2018-12-09T08:10:18.769Z,9.70
2018-12-09T08:12:46.246Z,9.70
2018-12-09T08:15:13.781Z,9.70
2018-12-09T08:17:41.300Z,9.70
2018-12-09T08:20:08.790Z,9.70
2018-12-09T08:22:36.272Z,9.80
2018-12-09T08:25:03.870Z,9.80
2018-12-09T08:27:31.376Z,9.80
2018-12-09T08:29:58.829Z,9.80
2018-12-09T08:32:26.282Z,9.80
2018-12-09T08:34:53.901Z,9.90
2018-12-09T08:37:21.341Z,9.80
2018-12-09T08:39:48.785Z,9.80
2018-12-09T08:42:16.279Z,9.90
2018-12-09T08:44:43.769Z,9.90
2018-12-09T08:47:11.213Z,9.90
2018-12-09T08:49:38.955Z,10.00
2018-12-09T08:52:06.434Z,10.10
2018-12-09T08:54:33.903Z,10.10
2018-12-09T08:57:01.473Z,10.10
2018-12-09T08:59:29.040Z,10.00
2018-12-09T09:01:56.585Z,10.10
2018-12-09T09:04:24.035Z,10.00
2018-12-09T09:06:51.525Z,9.90
2018-12-09T09:09:18.956Z,10.10
2018-12-09T09:11:46.445Z,10.10
2018-12-09T09:14:13.989Z,9.90
2018-12-09T09:16:41.433Z,9.70
2018-12-09T09:19:08.886Z,9.70
2018-12-09T09:21:36.362Z,9.90
2018-12-09T09:24:03.875Z,9.80
2018-12-09T09:26:31.398Z,9.90
2018-12-09T09:28:58.907Z,10.10
2018-12-09T09:31:26.410Z,10.00
2018-12-09T09:33:53.884Z,10.00
2018-12-09T09:36:21.409Z,10.00
2018-12-09T09:38:49.030Z,10.20
2018-12-09T09:41:16.485Z,10.00
2018-12-09T09:43:44.062Z,10.00
2018-12-09T09:46:11.532Z,10.20
2018-12-09T09:48:39.004Z,10.20
2018-12-09T09:51:06.491Z,10.20
2018-12-09T09:53:34.227Z,10.20
2018-12-09T09:56:01.901Z,10.30
2018-12-09T09:58:29.408Z,10.20
2018-12-09T10:00:56.861Z,10.10
2018-12-09T10:03:26.047Z,10.20
2018-12-09T10:05:53.840Z,10.10
2018-12-09T10:08:21.331Z,10.10
2018-12-09T10:10:48.769Z,10.10
2018-12-09T10:13:16.226Z,10.50
2018-12-09T10:15:48.722Z,10.50
2018-12-09T10:18:16.193Z,10.30
2018-12-09T10:20:43.640Z,10.20
2018-12-09T10:23:11.125Z,10.10
2018-12-09T10:25:38.599Z,10.10
2018-12-09T10:28:06.179Z,10.10
2018-12-09T10:30:33.678Z,10.10
2018-12-09T10:33:01.992Z,10.30
2018-12-09T10:35:29.557Z,10.20
2018-12-09T10:37:57.009Z,10.10
2018-12-09T10:40:24.467Z,9.80
2018-12-09T10:42:51.982Z,9.60
2018-12-09T10:45:19.455Z,9.50
2018-12-09T10:47:46.933Z,9.40
2018-12-09T10:50:14.367Z,9.30
2018-12-09T10:52:42.161Z,9.10
2018-12-09T10:55:09.634Z,9.00
2018-12-09T10:57:37.074Z,9.00
2018-12-09T11:00:05.191Z,8.90
2018-12-09T11:02:32.655Z,8.70
2018-12-09T11:05:00.160Z,8.60
2018-12-09T11:07:27.609Z,8.50
2018-12-09T11:09:55.079Z,8.50
2018-12-09T11:12:22.796Z,8.50
2018-12-09T11:14:50.296Z,8.50
2018-12-09T11:17:17.767Z,8.50
2018-12-09T11:19:45.324Z,8.50
2018-12-09T11:22:12.960Z,8.50
2018-12-09T11:24:40.437Z,8.70
2018-12-09T11:27:07.943Z,8.60
2018-12-09T11:29:35.392Z,8.60
2018-12-09T11:32:02.921Z,8.60
2018-12-09T11:34:30.360Z,8.60
2018-12-09T11:36:57.896Z,8.60
2018-12-09T11:39:25.325Z,8.70
2018-12-09T11:41:52.770Z,8.80
2018-12-09T11:44:20.227Z,8.80
2018-12-09T11:46:47.689Z,8.70
2018-12-09T11:49:15.405Z,8.70
2018-12-09T11:51:42.872Z,8.60
2018-12-09T11:54:10.366Z,8.70
2018-12-09T11:56:37.839Z,8.60
2018-12-09T11:59:05.318Z,8.60
2018-12-09T12:01:32.783Z,8.50
2018-12-09T12:04:00.267Z,8.50
2018-12-09T12:06:27.751Z,8.60
2018-12-09T12:08:55.207Z,8.60
2018-12-09T12:11:22.656Z,8.60
2018-12-09T12:13:50.109Z,8.50
2018-12-09T12:16:17.563Z,8.50
2018-12-09T12:18:45.027Z,8.50
2018-12-09T12:21:13.403Z,8.40
2018-12-09T12:23:40.863Z,8.40
2018-12-09T12:26:08.477Z,8.40
2018-12-09T12:28:35.943Z,8.40
2018-12-09T12:31:03.400Z,8.40
2018-12-09T12:33:30.885Z,8.40
2018-12-09T12:35:58.320Z,8.50
2018-12-09T12:38:25.776Z,8.70
2018-12-09T12:40:53.255Z,8.90
2018-12-09T12:43:20.793Z,8.90
2018-12-09T12:45:48.415Z,8.80
2018-12-09T12:48:16.301Z,8.90
2018-12-09T12:50:43.865Z,8.90
2018-12-09T12:53:11.368Z,9.10
2018-12-09T12:55:38.860Z,9.10
2018-12-09T12:58:06.380Z,9.20
2018-12-09T13:00:33.934Z,9.30
2018-12-09T13:03:01.437Z,9.40
2018-12-09T13:05:28.912Z,9.50
2018-12-09T13:07:56.418Z,9.80
2018-12-09T13:10:26.089Z,10.00
2018-12-09T13:12:53.637Z,10.20
2018-12-09T13:15:21.301Z,10.20
2018-12-09T13:17:48.733Z,10.00
2018-12-09T13:20:16.280Z,10.30
2018-12-09T13:22:44.367Z,10.10
2018-12-09T13:25:11.833Z,10.00
2018-12-09T13:27:39.328Z,9.80
2018-12-09T13:30:06.973Z,9.50
2018-12-09T13:32:34.468Z,9.40
2018-12-09T13:35:01.949Z,9.40
2018-12-09T13:37:29.383Z,9.20
2018-12-09T13:39:56.865Z,9.30
2018-12-09T13:42:24.303Z,9.10
2018-12-09T13:44:51.838Z,9.00
2018-12-09T13:47:19.291Z,9.00
2018-12-09T13:49:46.887Z,9.10
2018-12-09T13:52:14.345Z,9.00
2018-12-09T13:54:41.863Z,9.00
2018-12-09T13:57:09.319Z,9.10
2018-12-09T13:59:36.793Z,9.10
2018-12-09T14:02:04.310Z,9.00
2018-12-09T14:04:31.790Z,8.90
2018-12-09T14:06:59.225Z,9.20
2018-12-09T14:09:26.681Z,9.30
2018-12-09T14:11:54.157Z,9.40
2018-12-09T14:14:21.724Z,9.50
2018-12-09T14:16:49.235Z,9.50
2018-12-09T14:19:16.727Z,9.50
2018-12-09T14:21:44.169Z,9.40
2018-12-09T14:24:11.671Z,9.40
2018-12-09T14:26:39.177Z,9.30
2018-12-09T14:29:06.778Z,9.20
2018-12-09T14:31:34.578Z,9.30
2018-12-09T14:34:02.015Z,9.20
2018-12-09T14:36:29.568Z,9.00
2018-12-09T14:38:56.993Z,9.60
2018-12-09T14:41:24.441Z,9.40
2018-12-09T14:43:51.911Z,9.20
2018-12-09T14:46:19.332Z,9.20
2018-12-09T14:48:47.355Z,9.20
2018-12-09T14:51:14.836Z,8.90
2018-12-09T14:53:42.397Z,8.50
2018-12-09T14:56:09.906Z,8.40
2018-12-09T14:58:37.372Z,8.30
2018-12-09T15:01:04.843Z,8.20
2018-12-09T15:03:32.401Z,8.20
2018-12-09T15:05:59.840Z,8.20
2018-12-09T15:08:27.339Z,8.20
2018-12-09T15:10:54.789Z,8.10
2018-12-09T15:13:22.243Z,8.10
2018-12-09T15:15:49.689Z,8.10
2018-12-09T15:18:17.249Z,8.20
2018-12-09T15:20:44.813Z,8.20
2018-12-09T15:23:12.402Z,8.20
2018-12-09T15:25:39.903Z,8.20
2018-12-09T15:28:07.339Z,8.20
2018-12-09T15:30:34.847Z,8.20
2018-12-09T15:33:02.308Z,8.30
2018-12-09T15:35:29.783Z,8.30
2018-12-09T15:37:57.235Z,8.40
2018-12-09T15:40:24.715Z,8.80
2018-12-09T15:42:52.184Z,9.40
2018-12-09T15:45:20.233Z,9.30
2018-12-09T15:47:47.897Z,9.20
2018-12-09T15:50:15.369Z,9.30
2018-12-09T15:52:42.833Z,9.40
2018-12-09T15:55:10.342Z,9.20
2018-12-09T15:57:37.805Z,9.50
2018-12-09T16:00:07.412Z,9.30
2018-12-09T16:02:34.874Z,9.60
2018-12-09T16:05:02.331Z,9.30
2018-12-09T16:07:30.577Z,9.00
2018-12-09T16:09:58.053Z,8.90
2018-12-09T16:12:25.517Z,8.80
2018-12-09T16:14:53.023Z,8.80
2018-12-09T16:17:20.520Z,8.80
2018-12-09T16:19:48.467Z,8.80
2018-12-09T16:22:15.918Z,8.90
2018-12-09T16:24:43.366Z,8.70
2018-12-09T16:27:10.812Z,8.90
2018-12-09T16:29:38.643Z,8.70
2018-12-09T16:32:06.181Z,8.70
2018-12-09T16:34:35.036Z,8.70
2018-12-09T16:37:02.510Z,8.70
2018-12-09T16:39:29.969Z,8.70
2018-12-09T16:41:57.480Z,8.80
2018-12-09T16:44:24.916Z,8.80
2018-12-09T16:46:52.364Z,8.90
2018-12-09T16:49:19.864Z,8.90
2018-12-09T16:51:47.301Z,8.90
2018-12-09T16:54:23.141Z,8.90
2018-12-09T16:56:50.588Z,8.90
2018-12-09T16:59:18.024Z,9.20
2018-12-09T17:01:45.492Z,9.00
2018-12-09T17:04:12.983Z,8.90
2018-12-09T17:06:40.471Z,8.80
2018-12-09T17:09:08.122Z,8.90
2018-12-09T17:11:35.614Z,8.90
2018-12-09T17:14:03.125Z,9.00
2018-12-09T17:16:30.611Z,9.10
2018-12-09T17:18:58.040Z,8.90
2018-12-09T17:21:25.550Z,8.70
2018-12-09T17:23:53.309Z,8.80
2018-12-09T17:26:21.763Z,8.70
2018-12-09T17:28:49.236Z,8.60
2018-12-09T17:31:16.748Z,8.60
2018-12-09T17:33:44.229Z,8.50
2018-12-09T17:36:11.693Z,8.60
2018-12-09T17:38:39.145Z,8.60
2018-12-09T17:41:06.679Z,8.60
2018-12-09T17:43:34.180Z,8.50
2018-12-09T17:46:01.641Z,8.80
2018-12-09T17:48:29.104Z,8.70
2018-12-09T17:50:56.650Z,8.60
2018-12-09T17:53:24.099Z,8.60
2018-12-09T17:55:52.042Z,8.60
2018-12-09T17:58:19.966Z,8.60
2018-12-09T18:00:47.431Z,8.60
2018-12-09T18:03:15.472Z,8.50
2018-12-09T18:05:42.978Z,8.40
2018-12-09T18:08:10.497Z,8.30
2018-12-09T18:10:41.614Z,8.30
2018-12-09T18:13:09.529Z,8.30
2018-12-09T18:15:37.123Z,8.30
2018-12-09T18:18:04.639Z,8.30
2018-12-09T18:20:32.262Z,8.40
2018-12-09T18:22:59.885Z,8.40
2018-12-09T18:25:27.479Z,8.50
2018-12-09T18:27:55.023Z,8.50
2018-12-09T18:30:22.784Z,8.60
2018-12-09T18:32:51.185Z,8.60
2018-12-09T18:35:18.790Z,8.50
2018-12-09T18:37:46.917Z,8.40
2018-12-09T18:40:14.498Z,8.30
2018-12-09T18:42:43.126Z,8.20
2018-12-09T18:45:10.569Z,8.20
2018-12-09T18:47:38.288Z,8.30
2018-12-09T18:50:05.997Z,8.10
2018-12-09T18:52:33.798Z,8.10
2018-12-09T18:55:02.556Z,8.00
2018-12-09T18:57:30.800Z,8.00
2018-12-09T18:59:58.452Z,7.90
2018-12-09T19:02:25.949Z,7.80
2018-12-09T19:04:54.125Z,7.80
2018-12-09T19:07:21.614Z,7.90
2018-12-09T19:09:50.529Z,7.80
2018-12-09T19:12:18.378Z,7.80
2018-12-09T19:14:48.208Z,7.80
2018-12-09T19:17:15.682Z,7.70
2018-12-09T19:19:43.152Z,7.70
2018-12-09T19:22:10.693Z,7.70
2018-12-09T19:24:38.289Z,7.70
2018-12-09T19:27:05.776Z,7.70
2018-12-09T19:29:33.227Z,7.70
2018-12-09T19:32:00.680Z,7.70
2018-12-09T19:34:28.167Z,7.70
2018-12-09T19:36:55.724Z,7.70
2018-12-09T19:39:23.261Z,7.70
2018-12-09T19:41:50.819Z,7.60
2018-12-09T19:44:18.377Z,7.70
2018-12-09T19:46:45.875Z,7.70
2018-12-09T19:49:14.436Z,7.80
2018-12-09T19:51:41.909Z,7.80
2018-12-09T19:54:12.436Z,8.00
2018-12-09T19:56:39.964Z,7.90
2018-12-09T19:59:08.419Z,7.90
2018-12-09T20:01:35.972Z,7.80
2018-12-09T20:04:03.648Z,7.90
2018-12-09T20:06:31.827Z,7.90
2018-12-09T20:09:00.173Z,7.90
2018-12-09T20:11:28.526Z,7.90
2018-12-09T20:13:55.991Z,7.90
2018-12-09T20:16:23.494Z,7.80
2018-12-09T20:18:51.102Z,7.80
2018-12-09T20:21:18.548Z,7.80
2018-12-09T20:23:45.984Z,7.80
2018-12-09T20:26:13.452Z,7.80
2018-12-09T20:28:40.909Z,7.70
2018-12-09T20:31:08.446Z,7.70
2018-12-09T20:33:35.881Z,7.70
2018-12-09T20:36:03.343Z,7.80
2018-12-09T20:38:30.785Z,7.80
2018-12-09T20:40:59.241Z,7.80
2018-12-09T20:43:26.681Z,7.70
2018-12-09T20:45:54.146Z,7.80
2018-12-09T20:48:21.617Z,7.70
2018-12-09T20:50:49.104Z,7.50
2018-12-09T20:53:16.595Z,7.40
2018-12-09T20:55:44.068Z,7.30
2018-12-09T20:58:11.533Z,7.30
2018-12-09T21:00:38.989Z,7.20
2018-12-09T21:03:06.492Z,7.20
2018-12-09T21:05:33.946Z,7.20
2018-12-09T21:08:01.443Z,7.20
2018-12-09T21:10:29.389Z,7.20
2018-12-09T21:12:57.688Z,7.20
2018-12-09T21:15:25.198Z,7.30
2018-12-09T21:17:52.650Z,7.30
2018-12-09T21:20:20.118Z,7.30
2018-12-09T21:22:47.561Z,7.30
2018-12-09T21:25:15.041Z,7.40
2018-12-09T21:27:42.601Z,7.40
2018-12-09T21:30:10.205Z,7.40
2018-12-09T21:32:37.680Z,7.40
2018-12-09T21:35:05.795Z,7.40
2018-12-09T21:37:33.248Z,7.50
2018-12-09T21:40:00.717Z,7.50
2018-12-09T21:42:28.173Z,7.50
2018-12-09T21:44:55.674Z,7.50
2018-12-09T21:47:23.185Z,7.50
2018-12-09T21:49:50.657Z,7.40
2018-12-09T21:52:18.127Z,7.40
2018-12-09T21:54:45.568Z,7.30
2018-12-09T21:57:13.031Z,7.30
2018-12-09T21:59:40.551Z,7.30
2018-12-09T22:02:08.113Z,7.30
2018-12-09T22:04:35.737Z,7.30
2018-12-09T22:07:03.228Z,7.30
2018-12-09T22:09:30.826Z,7.30
2018-12-09T22:11:58.280Z,7.30
2018-12-09T22:14:25.903Z,7.50
2018-12-09T22:16:53.631Z,8.20
2018-12-09T22:19:21.068Z,8.60
2018-12-09T22:21:48.580Z,8.70
2018-12-09T22:24:16.064Z,8.30
2018-12-09T22:26:43.530Z,8.10
2018-12-09T22:29:11.009Z,8.50
2018-12-09T22:31:38.567Z,8.00
2018-12-09T22:34:06.018Z,7.60
2018-12-09T22:36:33.458Z,7.50
2018-12-09T22:39:00.896Z,7.50
2018-12-09T22:41:28.448Z,7.40
2018-12-09T22:43:55.916Z,7.40
2018-12-09T22:46:23.360Z,7.30
2018-12-09T22:48:51.774Z,7.30
2018-12-09T22:51:19.368Z,7.30
2018-12-09T22:53:46.811Z,7.30
2018-12-09T22:56:14.285Z,7.30
2018-12-09T22:58:41.730Z,7.30
2018-12-09T23:01:14.955Z,7.30
2018-12-09T23:03:42.440Z,7.30
2018-12-09T23:06:09.968Z,7.30
2018-12-09T23:08:37.421Z,7.30
2018-12-09T23:11:04.949Z,7.40
2018-12-09T23:13:32.431Z,7.40
2018-12-09T23:15:59.913Z,7.40
2018-12-09T23:18:27.408Z,7.40
2018-12-09T23:20:54.961Z,7.50
2018-12-09T23:23:23.005Z,7.40
2018-12-09T23:25:50.450Z,7.30
2018-12-09T23:28:17.973Z,7.30
2018-12-09T23:30:45.452Z,7.20
2018-12-09T23:33:12.908Z,7.10
2018-12-09T23:35:40.391Z,7.00
2018-12-09T23:38:07.865Z,6.90
2018-12-09T23:40:35.311Z,6.90
2018-12-09T23:43:02.853Z,6.80
2018-12-09T23:45:30.316Z,6.90
2018-12-09T23:47:57.785Z,6.90
2018-12-09T23:50:25.268Z,7.00
2018-12-09T23:52:52.708Z,7.00
2018-12-09T23:55:20.237Z,7.00
2018-12-09T23:57:47.677Z,6.90
